ADDS METAR Data INFO
IDs: Format: Raw Decoded Include TAF

Data at: 2333 UTC 19 Oct 2017

KUVA 192315Z AUTO 12007KT 10SM CLR 26/16 A3002 RMK AO2 T02630157
KUVA 192255Z AUTO 13010KT 10SM CLR 27/16 A3002 RMK AO2 T02660158
KUVA 192235Z AUTO 11011KT 10SM CLR 27/16 A3002 RMK AO2 T02680160
KUVA 192215Z AUTO 12008G17KT 10SM SCT049 27/16 A3003 RMK AO2 T02670155
KUVA 192155Z AUTO 13010G16KT 10SM SCT047 27/16 A3003 RMK AO2 T02720158
KUVA 192135Z AUTO 15008G16KT 10SM SCT045 27/16 A3003 RMK AO2 T02710160
KUVA 192115Z AUTO 12009KT 10SM SCT045 27/16 A3004 RMK AO2 T02700161
KUVA 192055Z AUTO 13009G16KT 10SM SCT043 27/16 A3004 RMK AO2 T02680161
KUVA 192035Z AUTO 13009KT 10SM SCT043 26/16 A3005 RMK AO2 T02640160
KUVA 192015Z AUTO 13010G16KT 10SM SCT041 27/17 A3005 RMK AO2 T02720166
KUVA 191955Z AUTO 14009G15KT 10SM SCT042 25/16 A3006 RMK AO2 T02530158
KUVA 191935Z AUTO 14010G14KT 10SM SCT042 26/16 A3007 RMK AO2 T02600162
KUVA 191915Z AUTO 13008KT 10SM SCT040 25/16 A3008 RMK AO2 T02470159
KUVA 191855Z AUTO 13006G14KT 10SM SCT037 25/16 A3009 RMK AO2 T02500156
KUVA 191835Z AUTO 14009G14KT 10SM SCT037 25/16 A3010 RMK AO2 T02520164
KUVA 191815Z AUTO 14009G14KT 10SM SCT031 SCT037 25/16 A3010 RMK AO2 T02490163
KUVA 191755Z AUTO 16009KT 10SM SCT031 24/17 A3011 RMK AO2 T02370167 10241 20137
KUVA 191735Z AUTO 13006KT 10SM SCT028 SCT033 23/17 A3013 RMK AO2 T02300166
KUVA 191715Z AUTO 17006KT 10SM SCT022 BKN031 23/17 A3013 RMK AO2 T02260168
KUVA 191655Z AUTO 15007KT 10SM SCT017 SCT025 BKN029 23/17 A3013 RMK AO2 T02270168
KUVA 191635Z AUTO 13005KT 10SM SCT014 SCT021 SCT029 22/18 A3014 RMK AO2 T02200179
KUVA 191615Z AUTO 13004KT 10SM SCT014 22/18 A3014 RMK AO2 T02160178
KUVA 191555Z AUTO 11007KT 10SM SCT014 21/18 A3014 RMK AO2 T02120176
KUVA 191535Z AUTO 12006KT 10SM SCT014 21/18 A3015 RMK AO2 T02080176
KUVA 191515Z AUTO 00000KT 10SM CLR 20/17 A3014 RMK AO2 T02030173
KUVA 191455Z AUTO 06004KT 10SM CLR 19/17 A3014 RMK AO2 T01920166
KUVA 191435Z AUTO 07004KT 10SM SCT017 SCT024 18/16 A3014 RMK AO2 T01840163
KUVA 191415Z AUTO 06005KT 7SM BKN018 BKN024 17/16 A3013 RMK AO2 T01740160
KUVA 191355Z AUTO 06006KT 7SM BKN016 BKN024 16/15 A3013 RMK AO2 T01620150
KUVA 191335Z AUTO 07005KT 7SM OVC016 16/15 A3012 RMK AO2 T01600150
KUVA 191315Z AUTO 06005KT 7SM OVC014 15/15 A3011 RMK AO2 T01540146
KUVA 191255Z AUTO 05004KT 5SM BR OVC014 15/14 A3011 RMK AO2 T01480141
KUVA 191235Z AUTO 05005KT 7SM OVC014 15/14 A3010 RMK AO2 T01450139
KUVA 191215Z AUTO 06006KT 7SM BKN014 14/13 A3010 RMK AO2 T01390131
KUVA 191155Z AUTO 05006KT 7SM SCT014 14/13 A3010 RMK AO2 T01360130 10145 20120
KUVA 191135Z AUTO 06006KT 7SM BKN014 14/13 A3010 RMK AO2 T01380131
KUVA 191115Z AUTO 06005KT 7SM OVC014 14/13 A3010 RMK AO2 T01400133
KUVA 191055Z AUTO 05003KT 7SM BKN014 13/13 A3010 RMK AO2 T01330127
KUVA 191035Z AUTO 06005KT 7SM SCT014 12/12 A3010 RMK AO2 T01220117
KUVA 191015Z AUTO 05004KT 7SM CLR 12/12 A3010 RMK AO2 T01220116
KUVA 190955Z AUTO 05005KT 7SM CLR 12/11 A3009 RMK AO2 T01200113
KUVA 190935Z AUTO 06005KT 7SM CLR 12/12 A3009 RMK AO2 T01230116
KUVA 190915Z AUTO 06005KT 7SM CLR 12/11 A3010 RMK AO2 T01200112
KUVA 190855Z AUTO 07006KT 10SM CLR 12/11 A3010 RMK AO2 T01220113
KUVA 190835Z AUTO 05006KT 10SM CLR 12/11 A3010 RMK AO2 T01200109
KUVA 190815Z AUTO 06005KT 10SM CLR 12/11 A3011 RMK AO2 T01210106
KUVA 190755Z AUTO 06005KT 10SM CLR 12/10 A3011 RMK AO2 T01210102
KUVA 190735Z AUTO 06005KT 10SM CLR 13/10 A3011 RMK AO2 T01250101
KUVA 190715Z AUTO 07004KT 10SM CLR 13/10 A3011 RMK AO2 T01310101
KUVA 190655Z AUTO 06005KT 10SM CLR 13/10 A3011 RMK AO2 T01270095
KUVA 190635Z AUTO 05004KT 10SM CLR 13/09 A3011 RMK AO2 T01320093
KUVA 190615Z AUTO 06004KT 10SM CLR 14/10 A3012 RMK AO2 T01370095
KUVA 190555Z AUTO 08004KT 10SM CLR 15/10 A3012 RMK AO2 T01450095 10220 20131 402650067
KUVA 190535Z AUTO 10004KT 10SM CLR 15/10 A3012 RMK AO2 T01460097
KUVA 190515Z AUTO 07004KT 10SM CLR 14/10 A3012 RMK AO2 T01410098
KUVA 190455Z AUTO 00000KT 10SM CLR 14/10 A3012 RMK AO2 T01420098
KUVA 190435Z AUTO 07004KT 10SM CLR 15/10 A3011 RMK AO2 T01450101
KUVA 190415Z AUTO 08004KT 10SM CLR 14/10 A3011 RMK AO2 T01410101
KUVA 190355Z AUTO 06006KT 10SM CLR 14/10 A3011 RMK AO2 T01400100
KUVA 190335Z AUTO 07005KT 10SM CLR 15/10 A3010 RMK AO2 T01480104
KUVA 190315Z AUTO 08005KT 10SM CLR 16/11 A3010 RMK AO2 T01550106
KUVA 190255Z AUTO 09004KT 10SM CLR 17/11 A3010 RMK AO2 T01650108
KUVA 190235Z AUTO 09004KT 10SM CLR 17/11 A3010 RMK AO2 T01680110
KUVA 190215Z AUTO 08006KT 10SM CLR 17/11 A3009 RMK AO2 T01650110
KUVA 190155Z AUTO 08006KT 10SM CLR 17/11 A3010 RMK AO2 T01700109
KUVA 190135Z AUTO 08004KT 10SM CLR 18/11 A3010 RMK AO2 T01800106
KUVA 190115Z AUTO 10005KT 10SM CLR 20/11 A3009 RMK AO2 T01960106
KUVA 190055Z AUTO 11004KT 10SM CLR 20/10 A3008 RMK AO2 T02000102
KUVA 190035Z AUTO 11004KT 10SM CLR 21/10 A3008 RMK AO2 T02070097
KUVA 190015Z AUTO 10004KT 10SM CLR 21/10 A3008 RMK AO2 T02130099
KUVA 182355Z AUTO 11004KT 10SM CLR 22/10 A3008 RMK AO2 T02200102 10265 20220
KUVA 182335Z AUTO 11003KT 10SM CLR 23/10 A3008 RMK AO2 T02270104
KUVA 182315Z AUTO 12004KT 10SM CLR 23/10 A3008 RMK AO2 T02250100
KUVA 182255Z AUTO 13005KT 10SM CLR 24/09 A3008 RMK AO2 T02390094
KUVA 182235Z AUTO 13007KT 10SM CLR 26/09 A3008 RMK AO2 T02550091
KUVA 182215Z AUTO 12008KT 10SM CLR 26/09 A3008 RMK AO2 T02600093
KUVA 182155Z AUTO 13008KT 10SM CLR 26/10 A3009 RMK AO2 T02610096
KUVA 182135Z AUTO 12005KT 10SM CLR 26/09 A3009 RMK AO2 T02610093
KUVA 182115Z AUTO 13005KT 10SM CLR 26/09 A3009 RMK AO2 T02590092
KUVA 182055Z AUTO 14006KT 10SM CLR 26/09 A3009 RMK AO2 T02610092
KUVA 182035Z AUTO 16003KT 10SM CLR 25/09 A3010 RMK AO2 T02540092
KUVA 182015Z AUTO 18006KT 10SM CLR 26/10 A3010 RMK AO2 T02610098
KUVA 181955Z AUTO 16005KT 10SM CLR 25/09 A3011 RMK AO2 T02500087
KUVA 181935Z AUTO 14006KT 10SM CLR 24/10 A3012 RMK AO2 T02410095
KUVA 181915Z AUTO 14008KT 10SM CLR 25/10 A3013 RMK AO2 T02460098
KUVA 181855Z AUTO 16005KT 10SM CLR 25/10 A3014 RMK AO2 T02460104
KUVA 181835Z AUTO 12003KT 10SM CLR 24/10 A3015 RMK AO2 T02400098
KUVA 181815Z AUTO 13003KT 10SM CLR 24/11 A3016 RMK AO2 T02380110
KUVA 181755Z AUTO 15005KT 10SM CLR 24/11 A3017 RMK AO2 T02390108 10239 20067
KUVA 181735Z AUTO 15006KT 10SM CLR 23/10 A3018 RMK AO2 T02320099
KUVA 181715Z AUTO 16006KT 10SM CLR 23/10 A3018 RMK AO2 T02250102
KUVA 181700Z AUTO 15007KT 10SM CLR 22/10 A3019 RMK AO2 T02230099
KUVA 181635Z AUTO 16006KT 10SM CLR 21/10 A3020 RMK AO2 T02100103
KUVA 181615Z AUTO 16005KT 10SM CLR 20/10 A3020 RMK AO2 T02020103
KUVA 181555Z AUTO 18008KT 10SM CLR 20/11 A3020 RMK AO2 T02000105
KUVA 181535Z AUTO 19006KT 10SM CLR 19/10 A3020 RMK AO2 T01920102
KUVA 181515Z AUTO 12004KT 10SM CLR 18/11 A3020 RMK AO2 T01820105
KUVA 181455Z AUTO 11003KT 10SM CLR 17/10 A3020 RMK AO2 T01700103
KUVA 181435Z AUTO 07003KT 10SM CLR 15/10 A3018 RMK AO2 T01510102
KUVA 181415Z AUTO 05005KT 10SM CLR 14/09 A3018 RMK AO2 T01350091
KUVA 181355Z AUTO 04003KT 10SM CLR 12/09 A3018 RMK AO2 T01190087
KUVA 181335Z AUTO 00000KT 10SM CLR 10/08 A3017 RMK AO2 T00960076
KUVA 181315Z AUTO 03004KT 10SM CLR 08/06 A3016 RMK AO2 T00780060
KUVA 181255Z AUTO 04004KT 10SM CLR 08/06 A3016 RMK AO2 T00750056
KUVA 181235Z AUTO 03004KT 10SM CLR 07/05 A3016 RMK AO2 T00680052
KUVA 181215Z AUTO 02003KT 10SM CLR 08/05 A3016 RMK AO2 T00750053
KUVA 181155Z AUTO 00000KT 10SM CLR 08/06 A3016 RMK AO2 7//// T00770055 10115 20070
KUVA 181135Z AUTO 04004KT 10SM CLR 07/05 A3016 RMK AO2 T00720053